Time;durP1;ratioP1;P1;durP2;ratioP2;P2;SDS_P1;SDS_P2;PMS_P1;PMS_P2;Temp;Humidity;BMP_temperature;BMP_pressure;BME280_temperature;BME280_humidity;BME280_pressure;Samples;Min_cycle;Max_cycle;Signal;HPM_P1;HPM_P2
2022/08/13 00:00:14;;;;;;;8.57;7.07;;;;;;;;;;5071409;28;20025;-62
2022/08/13 00:02:43;;;;;;;8.02;6.55;;;;;;;;;;5039210;28;20025;-62
2022/08/13 00:05:09;;;;;;;7.95;7.00;;;;;;;;;;5075163;28;20119;-62
2022/08/13 00:07:36;;;;;;;8.20;7.32;;;;;;;;;;5062372;28;20056;-62
2022/08/13 00:10:02;;;;;;;;;;;;;;;;;;5055778;28;20025;-62
2022/08/13 00:15:25;;;;;;;9.43;7.55;;;;;;;;;;5055661;28;20415;-62
2022/08/13 00:17:51;;;;;;;9.02;6.90;;;;;;;;;;5040814;28;20204;-62
2022/08/13 00:20:18;;;;;;;7.90;7.10;;;;;;;;;;5039246;28;20124;-62
2022/08/13 00:22:47;;;;;;;10.73;8.00;;;;;;;;;;5059185;28;20029;-62
2022/08/13 00:25:16;;;;;;;7.55;6.63;;;;;;;;;;5055071;28;20025;-62
2022/08/13 00:27:47;;;;;;;9.95;7.78;;;;;;;;;;5055142;28;20445;-62
2022/08/13 00:30:15;;;;;;;8.95;7.70;;;;;;;;;;5055179;28;20033;-62
2022/08/13 00:32:42;;;;;;;10.52;8.15;;;;;;;;;;5054787;28;20032;-62
2022/08/13 00:35:09;;;;;;;11.85;8.32;;;;;;;;;;5054899;28;20053;-62
2022/08/13 00:37:41;;;;;;;11.23;7.18;;;;;;;;;;5055074;28;20017;-61
2022/08/13 00:40:09;;;;;;;9.18;7.65;;;;;;;;;;5064921;28;20024;-62
2022/08/13 00:42:36;;;;;;;8.38;7.40;;;;;;;;;;5069675;28;20055;-62
2022/08/13 00:45:02;;;;;;;6.72;5.88;;;;;;;;;;5056467;28;20049;-62
2022/08/13 00:50:13;;;;;;;6.90;6.25;;;;;;;;;;5071912;28;20130;-62
2022/08/13 00:52:40;;;;;;;11.90;7.80;;;;;;;;;;5074589;28;20115;-62
2022/08/13 00:55:15;;;;;;;8.68;6.53;;;;;;;;;;5056045;28;20027;-62
2022/08/13 00:57:44;;;;;;;8.25;6.00;;;;;;;;;;5057424;28;20432;-62
2022/08/13 01:00:13;;;;;;;7.18;6.45;;;;;;;;;;5058837;28;20474;-62
2022/08/13 01:02:40;;;;;;;11.00;7.30;;;;;;;;;;5072480;28;20017;-62
2022/08/13 01:05:06;;;;;;;8.52;6.90;;;;;;;;;;5056222;28;20016;-63
2022/08/13 01:07:32;;;;;;;8.47;6.60;;;;;;;;;;5038935;28;20029;-63
2022/08/13 01:09:58;;;;;;;6.43;4.38;;;;;;;;;;5071890;28;20267;-63
2022/08/13 01:12:25;;;;;;;6.45;5.00;;;;;;;;;;5073616;28;20021;-62
2022/08/13 01:14:52;;;;;;;6.68;5.18;;;;;;;;;;5070537;28;20119;-62
2022/08/13 01:17:22;;;;;;;6.78;5.13;;;;;;;;;;5061627;28;20035;-62
2022/08/13 01:19:49;;;;;;;6.00;4.60;;;;;;;;;;5072483;28;20016;-62
2022/08/13 01:22:16;;;;;;;5.18;4.40;;;;;;;;;;5070320;28;20029;-62
2022/08/13 01:24:43;;;;;;;6.40;4.80;;;;;;;;;;5073732;28;20103;-62
2022/08/13 01:27:10;;;;;;;7.47;4.85;;;;;;;;;;5065031;28;20393;-62
2022/08/13 01:29:36;;;;;;;6.88;4.90;;;;;;;;;;5064231;28;20024;-62
2022/08/13 01:32:02;;;;;;;;;;;;;;;;;;5065557;28;20021;-62
2022/08/13 01:34:31;;;;;;;7.70;6.10;;;;;;;;;;5073605;28;19915;-62
2022/08/13 01:36:58;;;;;;;11.20;6.82;;;;;;;;;;5064402;28;20383;-62
2022/08/13 01:39:24;;;;;;;10.63;6.88;;;;;;;;;;5062708;28;20024;-62
2022/08/13 01:41:50;;;;;;;;;;;;;;;;;;5059674;28;20033;-62
2022/08/13 01:44:18;;;;;;;8.13;6.70;;;;;;;;;;5053478;28;20291;-62
2022/08/13 01:52:16;;;;;;;10.55;6.65;;;;;;;;;;5056986;28;20410;-62
2022/08/13 01:54:44;;;;;;;9.57;7.25;;;;;;;;;;5053309;28;20074;-62
2022/08/13 01:57:11;;;;;;;8.05;7.30;;;;;;;;;;5070460;28;20013;-62
2022/08/13 01:59:38;;;;;;;9.75;6.63;;;;;;;;;;5057655;28;20033;-62
2022/08/13 02:02:04;;;;;;;;;;;;;;;;;;5056391;28;20029;-62
2022/08/13 02:04:32;;;;;;;8.32;6.07;;;;;;;;;;5053300;28;20018;-62
2022/08/13 02:06:59;;;;;;;8.50;6.20;;;;;;;;;;5053057;28;20039;-62
2022/08/13 02:09:26;;;;;;;9.50;7.50;;;;;;;;;;5073442;28;20102;-62
2022/08/13 02:11:52;;;;;;;7.53;6.72;;;;;;;;;;5070136;28;20028;-62
2022/08/13 02:14:21;;;;;;;28.25;8.82;;;;;;;;;;5054664;28;20059;-62
2022/08/13 02:16:47;;;;;;;9.27;8.13;;;;;;;;;;5072565;28;20033;-62
2022/08/13 02:19:13;;;;;;;10.67;7.80;;;;;;;;;;5063581;28;20029;-62
2022/08/13 02:21:40;;;;;;;11.55;7.40;;;;;;;;;;5058156;28;20630;-62
2022/08/13 02:24:08;;;;;;;;;;;;;;;;;;5064321;28;20033;-62
2022/08/13 02:26:34;;;;;;;;;;;;;;;;;;5064466;28;19928;-62
2022/08/13 02:29:01;;;;;;;7.88;7.07;;;;;;;;;;5058166;28;19909;-62
2022/08/13 02:31:28;;;;;;;;;;;;;;;;;;5055681;28;20482;-62
2022/08/13 02:33:55;;;;;;;8.50;7.05;;;;;;;;;;5069795;28;20302;-61
2022/08/13 02:36:22;;;;;;;7.97;7.10;;;;;;;;;;5072499;28;20025;-62
2022/08/13 02:38:55;;;;;;;9.00;7.10;;;;;;;;;;5066354;28;20022;-62
2022/08/13 02:44:10;;;;;;;10.88;8.93;;;;;;;;;;5057777;28;20043;-62
2022/08/13 02:46:36;;;;;;;9.85;8.38;;;;;;;;;;5071245;28;20544;-62
2022/08/13 02:49:03;;;;;;;10.82;8.55;;;;;;;;;;5059583;28;20022;-62
2022/08/13 02:51:29;;;;;;;;;;;;;;;;;;5060305;28;20025;-62
2022/08/13 02:53:55;;;;;;;9.45;8.55;;;;;;;;;;5066546;28;19916;-62
2022/08/13 02:56:23;;;;;;;9.48;8.65;;;;;;;;;;5052605;28;20028;-62
2022/08/13 02:58:50;;;;;;;10.13;9.05;;;;;;;;;;5052311;28;20035;-63
2022/08/13 03:01:16;;;;;;;11.57;9.07;;;;;;;;;;5044240;28;20025;-63
2022/08/13 03:03:42;;;;;;;10.97;9.87;;;;;;;;;;5055062;28;20342;-62
2022/08/13 03:06:08;;;;;;;10.20;9.30;;;;;;;;;;5062819;28;20028;-62
2022/08/13 03:08:35;;;;;;;9.43;8.23;;;;;;;;;;5054126;28;20502;-62
2022/08/13 03:11:01;;;;;;;10.73;9.68;;;22.20;76.10;;;;;;5044480;28;20397;-63
2022/08/13 03:13:32;;;;;;;12.48;9.32;;;21.90;75.80;;;;;;5053817;28;20025;-62
2022/08/13 03:16:00;;;;;;;11.82;10.15;;;21.80;75.90;;;;;;5051886;28;20418;-62
2022/08/13 03:18:25;;;;;;;10.40;9.40;;;21.80;75.90;;;;;;5051993;28;20028;-62
2022/08/13 03:20:51;;;;;;;11.93;10.82;;;;;;;;;;5052039;28;20514;-62
2022/08/13 03:23:18;;;;;;;11.40;10.20;;;;;;;;;;5033540;28;20029;-62
2022/08/13 03:25:44;;;;;;;11.57;10.32;;;;;;;;;;5051998;28;20029;-62
2022/08/13 03:28:10;;;;;;;11.68;9.82;;;;;;;;;;5051719;28;20028;-62
2022/08/13 03:30:36;;;;;;;12.80;10.05;;;;;;;;;;5033513;28;20511;-62
2022/08/13 03:33:07;;;;;;;11.10;10.00;;;;;;;;;;5055953;28;20025;-62
2022/08/13 03:35:33;;;;;;;11.20;9.95;;;;;;;;;;5071200;28;20274;-62
2022/08/13 03:37:59;;;;;;;12.03;10.43;;;;;;;;;;5054208;28;20059;-62
2022/08/13 03:41:00;;;;;;;11.90;9.85;;;;;;;;;;5051583;28;20359;-61
2022/08/13 03:43:16;;;;;;;14.10;10.88;;;;;;;;;;5050987;28;20364;-61
2022/08/13 03:45:44;;;;;;;15.95;10.43;;;;;;;;;;5051686;28;20057;-61
2022/08/13 03:48:12;;;;;;;11.02;10.02;;;;;;;;;;5053907;28;20024;-61
2022/08/13 03:50:40;;;;;;;12.75;10.43;;;;;;;;;;5059940;28;20078;-62
2022/08/13 03:53:07;;;;;;;13.13;10.50;;;;;;;;;;5051219;28;20510;-62
2022/08/13 03:55:37;;;;;;;12.88;11.30;;;;;;;;;;5055466;28;20041;-62
2022/08/13 03:58:04;;;;;;;12.02;10.82;;;;;;;;;;5051449;28;20017;-62
2022/08/13 04:00:30;;;;;;;11.88;10.65;;;;;;;;;;5050797;28;20095;-62
2022/08/13 04:02:57;;;;;;;17.05;11.68;;;;;;;;;;5051194;28;20510;-62
2022/08/13 04:05:23;;;;;;;12.43;10.60;;;;;;;;;;5051400;28;20036;-62
2022/08/13 04:07:51;;;;;;;13.50;12.13;;;;;;;;;;5051756;28;20154;-62
2022/08/13 04:10:18;;;;;;;12.52;11.27;;;21.70;75.60;;;;;;5051132;28;20070;-62
2022/08/13 04:12:54;;;;;;;17.45;12.55;;;21.40;75.60;;;;;;5033095;28;20041;-61
2022/08/13 04:15:20;;;;;;;13.10;11.82;;;21.40;75.00;;;;;;5051214;28;20074;-61
2022/08/13 04:17:45;;;;;;;12.60;11.50;;;21.40;75.10;;;;;;5033553;28;20036;-61
2022/08/13 04:20:12;;;;;;;12.48;11.32;;;;;;;;;;5051291;28;20017;-62
2022/08/13 04:22:38;;;;;;;13.07;11.50;;;;;;;;;;5051121;28;20112;-62
2022/08/13 04:25:05;;;;;;;17.33;13.13;;;;;;;;;;5033492;28;20025;-62
2022/08/13 04:27:32;;;;;;;;;;;;;;;;;;5051683;28;20094;-62
2022/08/13 04:29:58;;;;;;;12.30;11.20;;;;;;;;;;5051082;28;19904;-62
2022/08/13 04:32:24;;;;;;;13.37;11.97;;;;;;;;;;5051183;28;20025;-62
2022/08/13 04:34:50;;;;;;;15.37;12.07;;;;;;;;;;5051024;28;20025;-62
2022/08/13 04:37:16;;;;;;;13.85;12.55;;;;;;;;;;5051283;28;20021;-62
2022/08/13 04:39:43;;;;;;;15.77;12.82;;;;;;;;;;5051202;28;20103;-62
2022/08/13 04:42:11;;;;;;;15.98;14.32;;;;;;;;;;5051113;28;20021;-62
2022/08/13 04:44:38;;;;;;;20.42;14.18;;;;;;;;;;5054476;28;20565;-62
2022/08/13 04:47:04;;;;;;;17.85;13.85;;;;;;;;;;5054723;28;20029;-62
2022/08/13 04:49:31;;;;;;;17.08;13.68;;;;;;;;;;5054749;28;20021;-62
2022/08/13 04:51:57;;;;;;;14.55;13.07;;;;;;;;;;5054725;28;20434;-62
2022/08/13 04:54:23;;;;;;;18.27;12.83;;;;;;;;;;5036751;28;20052;-62
2022/08/13 04:56:49;;;;;;;14.80;13.30;;;;;;;;;;5054616;28;20029;-62
2022/08/13 04:59:15;;;;;;;16.20;14.10;;;;;;;;;;5054297;28;20035;-62
2022/08/13 05:01:41;;;;;;;15.80;14.37;;;;;;;;;;5054167;28;20374;-62
2022/08/13 05:04:07;;;;;;;18.90;14.95;;;;;;;;;;5054355;28;20251;-62
2022/08/13 05:06:33;;;;;;;15.37;13.77;;;;;;;;;;5054566;28;20519;-47
2022/08/13 05:09:01;;;;;;;15.65;13.70;;;;;;;;;;5054449;28;20064;-47
2022/08/13 05:11:29;;;;;;;14.88;13.38;;;;;;;;;;5054097;28;20075;-49
2022/08/13 05:13:55;;;;;;;18.43;14.27;;;;;;;;;;5053737;28;20108;-47
2022/08/13 05:16:21;;;;;;;14.15;12.57;;;;;;;;;;5053761;28;20124;-49
2022/08/13 05:18:55;;;;;;;16.23;13.40;;;;;;;;;;5054260;28;20021;-46
2022/08/13 05:21:22;;;;;;;14.65;13.23;;;;;;;;;;5054216;28;20025;-47
2022/08/13 05:23:53;;;;;;;15.45;13.85;;;;;;;;;;5053686;28;20025;-47
2022/08/13 05:26:23;;;;;;;16.63;14.85;;;;;;;;;;5051300;28;20017;-46
2022/08/13 05:28:49;;;;;;;15.57;14.02;;;;;;;;;;5054042;28;20029;-46
2022/08/13 05:31:17;;;;;;;15.57;14.00;;;;;;;;;;5036378;28;20025;-47
2022/08/13 05:33:43;;;;;;;16.02;14.35;;;;;;;;;;5035755;28;20035;-46
2022/08/13 05:36:09;;;;;;;16.03;14.33;;;;;;;;;;5053854;28;20395;-46
2022/08/13 05:38:37;;;;;;;15.98;14.48;;;;;;;;;;5053812;28;20449;-46
2022/08/13 05:41:05;;;;;;;15.82;13.93;;;;;;;;;;5053915;28;20032;-47
2022/08/13 05:43:34;;;;;;;15.18;13.60;;;;;;;;;;5054011;28;20025;-47
2022/08/13 05:46:02;;;;;;;16.02;13.52;;;;;;;;;;5053703;28;20178;-50
2022/08/13 05:48:32;;;;;;;16.88;14.40;;;;;;;;;;5053060;28;20060;-48
2022/08/13 05:50:59;;;;;;;18.33;13.93;;;;;;;;;;5053800;28;20442;-50
2022/08/13 05:53:26;;;;;;;13.40;12.07;;;;;;;;;;5053419;28;20122;-50
2022/08/13 05:55:53;;;;;;;;;;;;;;;;;;5053873;28;20500;-48
2022/08/13 05:58:20;;;;;;;13.27;11.90;;;;;;;;;;5053605;28;19951;-47
2022/08/13 06:03:31;;;;;;;11.65;10.55;;;;;;;;;;5052836;28;20059;-60
2022/08/13 06:06:02;;;;;;;14.50;11.25;;;;;;;;;;5053444;28;20040;-60
2022/08/13 06:08:29;;;;;;;11.20;10.10;;;;;;;;;;5053254;28;20029;-60
2022/08/13 06:10:57;;;;;;;10.60;9.40;;;;;;;;;;5053153;28;20090;-60
2022/08/13 06:13:23;;;;;;;9.77;8.77;;;;;;;;;;5051755;28;20442;-60
2022/08/13 06:15:57;;;;;;;11.57;10.38;;;;;;;;;;5052555;28;20036;-60
2022/08/13 06:18:24;;;;;;;10.63;9.55;;;;;;;;;;5053074;28;20063;-60
2022/08/13 06:20:50;;;;;;;;;;;;;;;;;;5053516;28;20367;-60
2022/08/13 06:23:16;;;;;;;9.13;8.30;;;;;;;;;;5031182;28;19908;-60
2022/08/13 06:25:42;;;;;;;10.77;9.77;;;;;;;;;;5052846;28;20627;-60
2022/08/13 06:28:10;;;;;;;10.38;9.38;;;;;;;;;;5052793;28;20025;-60
2022/08/13 06:30:38;;;;;;;13.43;8.55;;;;;;;;;;5045417;28;20361;-60
2022/08/13 06:33:04;;;;;;;12.13;9.52;;;;;;;;;;5052634;28;20104;-60
2022/08/13 06:35:31;;;;;;;13.48;9.02;;;;;;;;;;5051767;28;20025;-60
2022/08/13 06:37:57;;;;;;;10.93;7.80;;;;;;;;;;5039720;28;20510;-60
2022/08/13 06:40:24;;;;;;;8.80;7.90;;;;;;;;;;5039462;28;20078;-60
2022/08/13 06:42:51;;;;;;;11.75;8.38;;;;;;;;;;5050488;28;20522;-61
2022/08/13 06:45:21;;;;;;;8.68;7.78;;;;;;;;;;5021647;28;20025;-60
2022/08/13 06:47:48;;;;;;;10.32;7.90;;;;;;;;;;5042663;28;20119;-60
2022/08/13 06:50:14;;;;;;;7.32;6.03;;;;;;;;;;5050023;28;20025;-60
2022/08/13 06:52:40;;;;;;;5.93;5.18;;;;;;;;;;5052038;28;20032;-60
2022/08/13 06:55:08;;;;;;;5.93;4.13;;;;;;;;;;5039659;28;20021;-60
2022/08/13 06:57:36;;;;;;;4.40;4.00;;;;;;;;;;5051660;28;20021;-60
2022/08/13 07:00:03;;;;;;;5.13;3.47;;;;;;;;;;5029820;28;20025;-60
2022/08/13 07:02:32;;;;;;;3.40;3.10;;;;;;;;;;5021342;28;20070;-60
2022/08/13 07:04:58;;;;;;;3.50;3.20;;;;;;;;;;5051365;28;20471;-56
2022/08/13 07:07:25;;;;;;;4.75;4.15;;;;;;;;;;5051386;28;20514;-52
2022/08/13 07:09:52;;;;;;;7.28;4.70;;;;;;;;;;5051724;28;20029;-58
2022/08/13 07:12:18;;;;;;;5.90;5.00;;;;;;;;;;5051509;28;20100;-57
2022/08/13 07:14:44;;;;;;;4.05;3.63;;;;;;;;;;5051691;28;20024;-57
2022/08/13 07:17:11;;;;;;;5.07;3.97;;;;;;;;;;5033512;28;20029;-57
2022/08/13 07:19:37;;;;;;;4.22;3.83;;;;;;;;;;5051436;28;20025;-53
2022/08/13 07:22:06;;;;;;;5.07;3.83;;;;;;;;;;5051680;28;20507;-57
2022/08/13 07:24:32;;;;;;;4.03;3.63;;;;;;;;;;5051493;28;20028;-57
2022/08/13 07:27:03;;;;;;;5.18;4.65;;;;;;;;;;5051371;28;20021;-54
2022/08/13 07:29:30;;;;;;;4.97;4.47;;;;;;;;;;5033657;28;20029;-57
2022/08/13 07:31:56;;;;;;;;;;;;;;;;;;5051726;28;20029;-57
2022/08/13 07:34:25;;;;;;;8.73;4.70;;;;;;;;;;5050516;28;19935;-56
2022/08/13 07:36:55;;;;;;;5.88;4.60;;;;;;;;;;5050555;28;20028;-57
2022/08/13 07:39:22;;;;;;;5.82;4.63;;;;;;;;;;5050265;28;20025;-56
2022/08/13 07:41:49;;;;;;;5.40;4.15;;;;;;;;;;5051176;28;20079;-57
2022/08/13 07:44:22;;;;;;;5.38;3.10;;;;;;;;;;5050763;28;20056;-57
2022/08/13 07:46:49;;;;;;;15.90;5.05;;;;;;;;;;5051455;28;20037;-56
2022/08/13 07:49:16;;;;;;;8.88;5.55;;;;;;;;;;5051163;28;20044;-56
2022/08/13 07:51:46;;;;;;;5.65;5.13;;;;;;;;;;5050330;28;20032;-56
2022/08/13 07:54:12;;;;;;;7.85;5.82;;;;;;;;;;5050631;28;20025;-56
2022/08/13 07:56:39;;;;;;;8.55;4.45;;;;;;;;;;5051160;28;20096;-55
2022/08/13 07:59:09;;;;;;;6.57;4.93;;;;;;;;;;5050105;28;20029;-56
2022/08/13 08:01:44;;;;;;;8.70;5.60;;;;;;;;;;5050788;28;20024;-55
2022/08/13 08:04:13;;;;;;;5.78;4.60;;;;;;;;;;5032844;28;20021;-57
2022/08/13 08:06:39;;;;;;;9.20;5.28;;;;;;;;;;5033238;28;20391;-57
2022/08/13 08:09:07;;;;;;;6.72;4.55;;;;;;;;;;5051223;28;20563;-56
2022/08/13 08:14:18;;;;;;;5.40;4.70;;;;;;;;;;5031862;28;20088;-56
2022/08/13 08:16:45;;;;;;;8.95;5.03;;;;;;;;;;5031297;28;20474;-56
2022/08/13 08:19:16;;;;;;;6.35;5.72;;;;;;;;;;5052120;28;20021;-56
2022/08/13 08:21:42;;;;;;;5.63;5.13;;;;;;;;;;5054924;28;20040;-55
2022/08/13 08:24:08;;;;;;;4.13;3.72;;;;;;;;;;5054690;28;20467;-56
2022/08/13 08:26:35;;;;;;;3.92;3.28;;;;;;;;;;5053814;28;20071;-56
2022/08/13 08:29:05;;;;;;;4.90;3.75;;;;;;;;;;5034849;28;20022;-56
2022/08/13 08:31:32;;;;;;;4.82;4.43;;;;;;;;;;5041222;28;20499;-56
2022/08/13 08:34:00;;;;;;;11.88;4.32;;;;;;;;;;5054680;28;20040;-56
2022/08/13 08:36:27;;;;;;;14.38;5.00;;;;;;;;;;5054557;28;20108;-57
2022/08/13 08:44:24;;;;;;;3.42;2.72;;;;;;;;;;5053002;28;20031;-62
2022/08/13 08:46:57;;;;;;;6.25;3.28;;;;;;;;;;5054491;28;20020;-62
2022/08/13 08:49:24;;;;;;;4.10;3.10;;;;;;;;;;5054359;28;20032;-62
2022/08/13 08:51:51;;;;;;;3.60;3.30;;;;;;;;;;5054714;28;20032;-62
2022/08/13 08:54:18;;;;;;;4.40;3.00;;;;;;;;;;5054081;28;20025;-62
2022/08/13 08:56:45;;;;;;;5.57;3.50;;;;;;;;;;5054239;28;20028;-63
2022/08/13 08:59:13;;;;;;;5.53;3.35;;;;;;;;;;5054416;28;20514;-63
2022/08/13 09:01:40;;;;;;;5.22;3.70;;;;;;;;;;5053854;28;20021;-63
2022/08/13 09:04:08;;;;;;;3.75;3.40;;;;;;;;;;5053928;28;20487;-62
2022/08/13 09:06:34;;;;;;;3.28;2.97;;;;;;;;;;5036106;28;20029;-62
2022/08/13 09:09:01;;;;;;;3.30;3.00;;;;;;;;;;5053674;28;20475;-62
2022/08/13 09:11:34;;;;;;;6.65;2.95;;;;;;;;;;5054216;28;20032;-62
2022/08/13 09:14:08;;;;;;;3.92;3.40;;;;;;;;;;5049027;28;20037;-63
2022/08/13 09:16:34;;;;;;;3.00;2.58;;;;;;;;;;5045077;28;20064;-62
2022/08/13 09:19:00;;;;;;;2.58;2.38;;;;;;;;;;5029788;28;20112;-63
2022/08/13 09:21:26;;;;;;;5.28;2.97;;;;;;;;;;5046556;28;20428;-63
2022/08/13 09:23:52;;;;;;;3.00;2.70;;;;;;;;;;5041221;28;20476;-63
2022/08/13 09:26:20;;;;;;;3.30;2.40;;;;;;;;;;5053786;28;20326;-62
2022/08/13 09:28:46;;;;;;;4.32;3.05;;;;;;;;;;5044477;28;20675;-62
2022/08/13 09:31:12;;;;;;;5.45;2.60;;;;;;;;;;5034034;28;20110;-63
2022/08/13 09:33:39;;;;;;;4.75;3.08;;;;;;;;;;5027138;28;20035;-62
2022/08/13 09:36:07;;;;;;;3.10;2.65;;;;;;;;;;5053401;28;20108;-62
2022/08/13 09:38:34;;;;;;;3.78;2.83;;;;;;;;;;5053401;28;20032;-62
2022/08/13 09:41:06;;;;;;;3.33;2.65;;;;;;;;;;5053573;28;20021;-63
2022/08/13 09:43:40;;;;;;;4.18;2.50;;;;;;;;;;5022792;28;20033;-62
2022/08/13 09:46:07;;;;;;;5.68;2.58;;;;;;;;;;5050497;28;20032;-62
2022/08/13 09:48:33;;;;;;;3.10;2.80;;;;;;;;;;5052893;28;20052;-62
2022/08/13 09:51:02;;;;;;;4.17;2.90;;;;;;;;;;5053215;28;20025;-62
2022/08/13 09:53:28;;;;;;;5.00;2.50;;;;;;;;;;5052964;28;20340;-63
2022/08/13 09:55:55;;;;;;;4.00;2.55;;;;;;;;;;5052754;28;20025;-63
2022/08/13 09:58:25;;;;;;;4.45;2.80;;;;;;;;;;5030427;28;20419;-62
2022/08/13 10:00:55;;;;;;;3.50;2.85;;;;;;;;;;5040328;28;20027;-63
2022/08/13 10:03:21;;;;;;;2.45;2.08;;;;;;;;;;5053011;28;20099;-62
2022/08/13 10:05:47;;;;;;;3.80;2.40;;;;;;;;;;5040277;28;20083;-62
2022/08/13 10:08:15;;;;;;;3.05;2.22;;;;;;;;;;5052765;28;20263;-62
2022/08/13 10:10:42;;;;;;;2.97;1.58;;;;;;;;;;5052925;28;20021;-62
2022/08/13 10:13:08;;;;;;;1.45;1.15;;;;;;;;;;5050851;28;20036;-63
2022/08/13 10:15:34;;;;;;;4.80;1.67;;;;;;;;;;5043882;28;20096;-62
2022/08/13 10:18:03;;;;;;;2.97;2.03;;;;;;;;;;5052226;28;20087;-62
2022/08/13 10:20:32;;;;;;;2.42;1.55;;;;;;;;;;5052905;28;20406;-62
2022/08/13 10:22:59;;;;;;;4.78;1.48;;;;;;;;;;5052442;28;20021;-62
2022/08/13 10:25:25;;;;;;;;;;;;;;;;;;5052981;28;20033;-62
2022/08/13 10:27:51;;;;;;;2.50;1.90;;;;;;;;;;5034178;28;19920;-62
2022/08/13 10:30:22;;;;;;;2.60;1.70;;;;;;;;;;5051987;28;20056;-62
2022/08/13 10:32:48;;;;;;;2.40;2.20;;;;;;;;;;5052007;28;20078;-65
2022/08/13 10:35:17;;;;;;;3.53;2.53;;;;;;;;;;5052362;28;20398;-64
2022/08/13 10:37:47;;;;;;;3.40;2.53;;;;;;;;;;5034449;28;20020;-65
2022/08/13 10:40:16;;;;;;;3.80;2.25;;;;;;;;;;5051770;28;20090;-65
2022/08/13 10:42:44;;;;;;;4.18;2.63;;;;;;;;;;5051888;28;20147;-64
2022/08/13 10:45:12;;;;;;;1.88;1.73;;;;;;;;;;5052132;28;20028;-65
2022/08/13 10:47:44;;;;;;;4.88;1.70;;;;;;;;;;5052192;28;20110;-65
2022/08/13 10:50:10;;;;;;;8.05;1.77;;;;;;;;;;5052192;28;20017;-66
2022/08/13 10:52:36;;;;;;;2.47;1.50;;;;;;;;;;5046320;28;20068;-64
2022/08/13 10:55:03;;;;;;;2.42;2.22;;;;;;;;;;5040477;28;20126;-63
2022/08/13 10:57:29;;;;;;;1.92;1.73;;;;;;;;;;5036429;28;20388;-59
2022/08/13 10:59:55;;;;;;;1.98;1.58;;;;;;;;;;5031108;28;20052;-57
2022/08/13 11:02:21;;;;;;;4.82;1.60;;;;;;;;;;5050158;28;20025;-59
2022/08/13 11:04:47;;;;;;;5.05;1.60;;;;;;;;;;5034374;28;20447;-59
2022/08/13 11:07:13;;;;;;;1.98;1.30;;;;;;;;;;5050557;28;20051;-59
2022/08/13 11:09:39;;;;;;;1.85;1.75;;;;;;;;;;5047112;28;20063;-58
2022/08/13 11:12:07;;;;;;;1.70;1.45;;;;;;;;;;5014542;28;20520;-59
2022/08/13 11:14:33;;;;;;;3.05;1.70;;;;;;;;;;5068112;22;20094;-55
2022/08/13 11:16:59;;;;;;;7.63;2.28;;;;;;;;;;5070326;28;20549;-57
2022/08/13 11:19:28;;;;;;;3.00;1.60;;;;;;;;;;5071369;28;20048;-57
2022/08/13 11:21:55;;;;;;;121.63;109.22;;;;;;;;;;5071348;28;20024;-56
2022/08/13 11:24:21;;;;;;;3.88;3.33;;;;;;;;;;5059005;28;20029;-56
2022/08/13 11:26:48;;;;;;;2.60;2.08;;;;;;;;;;5048835;28;20024;-56
2022/08/13 11:29:15;;;;;;;2.08;1.33;;;;;;;;;;5031802;28;20033;-62
2022/08/13 11:31:41;;;;;;;2.33;1.80;;;;;;;;;;5050755;28;20479;-62
2022/08/13 11:34:07;;;;;;;2.33;1.30;;;;;;;;;;5049088;28;20028;-62
2022/08/13 11:36:34;;;;;;;1.83;1.40;;;;;;;;;;5048110;28;20032;-62
2022/08/13 11:39:00;;;;;;;1.40;1.30;;;;;;;;;;5033544;28;20076;-62
2022/08/13 11:41:27;;;;;;;3.70;1.50;;;;;;;;;;5035803;28;20490;-62
2022/08/13 11:43:53;;;;;;;6.15;2.33;;;;;;;;;;5032941;28;20034;-62
2022/08/13 11:46:19;;;;;;;2.15;1.00;;;;;;;;;;5057245;28;20048;-62
2022/08/13 11:48:45;;;;;;;1.73;1.45;;;;;;;;;;5051318;28;20025;-62
2022/08/13 11:51:12;;;;;;;3.65;1.70;;;;;;;;;;5051591;28;20112;-62
2022/08/13 11:53:38;;;;;;;7.95;1.67;;;;;;;;;;5051119;28;20029;-63
2022/08/13 11:56:04;;;;;;;1.40;1.23;;;;;;;;;;5051430;28;20025;-62
2022/08/13 11:58:31;;;;;;;7.32;1.63;;;;;;;;;;5033605;28;20032;-62
2022/08/13 12:00:57;;;;;;;1.67;1.40;;;;;;;;;;5050384;28;20033;-63
2022/08/13 12:03:23;;;;;;;2.92;1.30;;;;;;;;;;5051002;28;20471;-62
2022/08/13 12:05:49;;;;;;;43.72;3.33;;;;;;;;;;5051503;28;20104;-62
2022/08/13 12:08:21;;;;;;;3.80;1.17;;;;;;;;;;5051336;28;20379;-62
2022/08/13 12:10:47;;;;;;;2.33;1.48;;;;;;;;;;5051226;28;20017;-62
2022/08/13 12:13:14;;;;;;;1.30;1.20;;;;;;;;;;5050925;28;20032;-63
2022/08/13 12:15:40;;;;;;;0.80;0.80;;;;;;;;;;5051384;28;20025;-62
2022/08/13 12:18:06;;;;;;;4.78;1.10;;;;;;;;;;5051347;28;20094;-63
2022/08/13 12:20:33;;;;;;;2.95;1.42;;;;;;;;;;5051205;28;20025;-62
2022/08/13 12:22:59;;;;;;;1.55;1.45;;;;;;;;;;5050362;28;20057;-63
2022/08/13 12:25:27;;;;;;;3.08;1.30;;;;;;;;;;5050723;28;20033;-62
2022/08/13 12:28:08;;;;;;;2.20;1.45;;;;;;;;;;5051088;28;20036;-62
2022/08/13 12:30:34;;;;;;;4.10;1.60;;;;;;;;;;5051291;28;20028;-63
2022/08/13 12:33:00;;;;;;;2.72;1.30;;;;;;;;;;5050843;28;20494;-63
2022/08/13 12:35:26;;;;;;;2.80;1.67;;;;;;;;;;5051126;28;20043;-63
2022/08/13 12:37:53;;;;;;;2.78;1.38;;;;;;;;;;5050949;28;20071;-63
2022/08/13 12:40:19;;;;;;;3.90;1.40;;;;;;;;;;5050445;28;20037;-63
2022/08/13 12:42:45;;;;;;;3.50;1.45;;;;;;;;;;5050942;28;20451;-63
2022/08/13 12:45:13;;;;;;;1.17;1.08;;;;;;;;;;5051009;28;20025;-63
2022/08/13 12:47:40;;;;;;;1.55;1.27;;;;;;;;;;5051070;28;20442;-63
2022/08/13 12:50:06;;;;;;;1.73;1.17;;;;;;;;;;5032977;28;20023;-62
2022/08/13 12:52:32;;;;;;;1.92;1.30;;;;;;;;;;5050581;28;20087;-62
2022/08/13 12:54:58;;;;;;;1.92;1.42;;;;;;;;;;5050679;28;20451;-62
2022/08/13 12:57:24;;;;;;;2.67;1.58;;;;;;;;;;5050676;28;20395;-62
2022/08/13 12:59:50;;;;;;;7.95;3.13;;;;;;;;;;5050755;28;20052;-62
2022/08/13 13:02:17;;;;;;;1.55;1.15;;;;;;;;;;5050737;28;20433;-63
2022/08/13 13:04:43;;;;;;;3.15;1.15;;;;;;;;;;5052610;28;20017;-62
2022/08/13 13:07:10;;;;;;;1.58;1.27;;;;;;;;;;5054530;28;20104;-62
2022/08/13 13:09:36;;;;;;;1.20;1.00;;;;;;;;;;5052649;28;20173;-63
2022/08/13 13:12:02;;;;;;;1.80;1.42;;;;;;;;;;5054358;28;20055;-62
2022/08/13 13:14:28;;;;;;;2.97;1.10;;;;;;;;;;5054104;28;20082;-63
2022/08/13 13:16:54;;;;;;;2.42;1.00;;;;;;;;;;5053192;28;20068;-63
2022/08/13 13:19:20;;;;;;;1.17;0.90;;;;;;;;;;5053549;28;20021;-63
2022/08/13 13:21:47;;;;;;;3.42;0.90;;;;;;;;;;5053372;28;20756;-63
2022/08/13 13:24:13;;;;;;;1.38;0.90;;;;;;;;;;5053923;28;20410;-62
2022/08/13 13:26:40;;;;;;;0.90;0.90;;;;;;;;;;5053949;28;20035;-63
2022/08/13 13:29:06;;;;;;;0.80;0.80;;;;;;;;;;5053894;28;20486;-63
2022/08/13 13:31:32;;;;;;;1.38;1.25;;;;;;;;;;5053528;28;20158;-64
2022/08/13 13:33:58;;;;;;;1.08;0.80;;;;;;;;;;5053879;28;20025;-63
2022/08/13 13:36:26;;;;;;;1.17;0.88;;;;;;;;;;5053728;28;20025;-64
2022/08/13 13:38:52;;;;;;;2.03;0.80;;;;;;;;;;5053388;28;20040;-65
2022/08/13 13:41:18;;;;;;;1.50;1.30;;;;;;;;;;5051690;28;20025;-64
2022/08/13 13:43:44;;;;;;;8.48;1.80;;;;;;;;;;5027481;28;20567;-63
2022/08/13 13:46:10;;;;;;;1.67;0.85;;;;;;;;;;5053259;28;20024;-62
2022/08/13 13:48:39;;;;;;;1.20;0.90;;;;;;;;;;5051843;28;20035;-63
2022/08/13 13:51:06;;;;;;;1.10;1.00;;;;;;;;;;5053501;28;20025;-63
2022/08/13 13:53:33;;;;;;;1.38;0.90;;;;;;;;;;5053369;28;20592;-63
2022/08/13 13:56:00;;;;;;;1.15;0.88;;;;;;;;;;5053589;28;20027;-63
2022/08/13 13:58:26;;;;;;;1.17;0.90;;;;;;;;;;5053579;28;20021;-63
2022/08/13 14:00:54;;;;;;;0.90;0.82;;;;;;;;;;5046828;28;20491;-63
2022/08/13 14:03:23;;;;;;;1.27;1.00;;;;;;;;;;5035477;28;20032;-60
2022/08/13 14:05:49;;;;;;;3.35;1.13;;;;;;;;;;5053376;28;20059;-57
2022/08/13 14:08:15;;;;;;;2.33;0.73;;;;;;;;;;5053411;28;20036;-60
2022/08/13 14:10:42;;;;;;;2.53;1.35;;;;;;;;;;5052284;28;20020;-60
2022/08/13 14:13:08;;;;;;;1.27;0.90;;;;;;;;;;5052184;28;20021;-60
2022/08/13 14:15:35;;;;;;;2.47;1.10;;;;;;;;;;5033773;28;20395;-60
2022/08/13 14:18:04;;;;;;;2.20;1.30;;;;;;;;;;5052374;28;20024;-60
2022/08/13 14:20:32;;;;;;;5.38;1.15;;;;;;;;;;5052427;28;20108;-60
2022/08/13 14:22:58;;;;;;;2.35;1.30;;;;;;;;;;5052930;28;20403;-63
2022/08/13 14:25:24;;;;;;;0.93;0.88;;;;;;;;;;5035180;28;20610;-63
2022/08/13 14:27:50;;;;;;;1.13;0.80;;;;;;;;;;5033299;28;20044;-62
2022/08/13 14:30:16;;;;;;;0.80;0.80;;;;;;;;;;5043405;28;20041;-62
2022/08/13 14:32:43;;;;;;;1.33;0.75;;;;;;;;;;5034482;28;20056;-62
2022/08/13 14:35:10;;;;;;;1.42;1.00;;;;;;;;;;5052580;28;20040;-62
2022/08/13 14:37:37;;;;;;;2.40;0.95;;;;;;;;;;5052170;28;20028;-62
2022/08/13 14:40:06;;;;;;;1.02;0.90;;;;;;;;;;5052438;28;20091;-63
2022/08/13 14:42:33;;;;;;;7.63;0.93;;;;;;;;;;5052159;28;20032;-62
2022/08/13 14:47:49;;;;;;;1.25;1.10;;;;;;;;;;5044745;28;20827;-62
2022/08/13 14:50:16;;;;;;;1.27;0.77;;;;;;;;;;5034415;28;20123;-62
2022/08/13 14:52:42;;;;;;;1.48;0.85;;;;;;;;;;5033228;28;20032;-62
2022/08/13 14:55:09;;;;;;;1.92;1.10;;;;;;;;;;5052635;28;20498;-63
2022/08/13 14:57:35;;;;;;;1.02;0.80;;;;;;;;;;5050083;28;20017;-62
2022/08/13 15:00:01;;;;;;;0.85;0.85;;;;;;;;;;5050498;28;20108;-62
2022/08/13 15:02:28;;;;;;;1.40;0.98;;;;;;;;;;5051467;28;20017;-62
2022/08/13 15:04:55;;;;;;;1.20;1.10;;;;;;;;;;5051465;28;20375;-62